createdAt,value
2022-12-19T00:01:35.949Z,28.50
2022-12-19T00:04:08.313Z,29.67
2022-12-19T00:06:39.504Z,28.65
2022-12-19T00:09:13.091Z,29.38
2022-12-19T00:11:41.701Z,29.27
2022-12-19T00:14:12.881Z,29.23
2022-12-19T00:16:42.407Z,29.20
2022-12-19T00:19:11.961Z,29.08
2022-12-19T00:21:39.971Z,28.65
2022-12-19T00:24:20.742Z,29.45
2022-12-19T00:26:50.126Z,28.45
2022-12-19T00:29:18.038Z,27.77
2022-12-19T00:31:46.583Z,28.55
2022-12-19T00:34:15.794Z,27.17
2022-12-19T00:36:43.711Z,27.38
2022-12-19T00:39:11.813Z,28.63
2022-12-19T00:41:42.178Z,25.33
2022-12-19T00:44:14.782Z,24.00
2022-12-19T00:46:43.020Z,21.63
2022-12-19T00:49:15.311Z,20.08
2022-12-19T00:51:43.199Z,21.27
2022-12-19T00:54:11.185Z,20.23
2022-12-19T00:56:39.841Z,20.13
2022-12-19T00:59:09.137Z,19.95
2022-12-19T01:01:41.001Z,19.63
2022-12-19T01:04:30.695Z,20.52
2022-12-19T01:07:01.981Z,18.58
2022-12-19T01:09:35.526Z,18.30
2022-12-19T01:12:25.143Z,20.37
2022-12-19T01:15:04.317Z,19.35
2022-12-19T01:17:43.712Z,20.23
2022-12-19T01:20:28.981Z,18.73
2022-12-19T01:23:00.157Z,20.17
2022-12-19T01:25:29.318Z,19.73
2022-12-19T01:27:58.258Z,19.27
2022-12-19T01:30:29.253Z,19.50
2022-12-19T01:33:00.496Z,18.60
2022-12-19T01:35:28.709Z,19.30
2022-12-19T01:38:07.660Z,19.35
2022-12-19T01:40:37.378Z,19.80
2022-12-19T01:43:06.527Z,19.33
2022-12-19T01:45:43.658Z,19.23
2022-12-19T01:48:21.614Z,19.35
2022-12-19T01:51:02.821Z,19.10
2022-12-19T01:53:39.023Z,18.85
2022-12-19T01:56:22.941Z,19.38
2022-12-19T01:58:57.423Z,18.67
2022-12-19T02:01:51.658Z,19.02
2022-12-19T02:04:27.115Z,18.98
2022-12-19T02:07:10.917Z,19.35
2022-12-19T02:09:47.582Z,18.92
2022-12-19T02:12:24.627Z,18.38
2022-12-19T02:14:54.889Z,19.67
2022-12-19T02:17:32.373Z,18.67
2022-12-19T02:20:50.487Z,19.67
2022-12-19T02:23:42.275Z,19.83
2022-12-19T02:26:34.192Z,18.70
2022-12-19T02:32:04.648Z,17.27
2022-12-19T02:37:43.177Z,17.23
2022-12-19T02:40:33.108Z,18.38
2022-12-19T02:43:03.130Z,21.83
2022-12-19T02:45:37.042Z,22.33
2022-12-19T02:48:09.049Z,23.85
2022-12-19T02:50:41.576Z,21.50
2022-12-19T02:53:15.381Z,20.17
2022-12-19T02:56:17.341Z,20.98
2022-12-19T02:59:16.714Z,19.13
2022-12-19T03:02:04.262Z,19.63
2022-12-19T03:04:49.386Z,19.23
2022-12-19T03:07:49.095Z,18.92
2022-12-19T03:10:41.338Z,18.30
2022-12-19T03:13:17.449Z,13.63
2022-12-19T03:15:46.799Z,18.38
2022-12-19T03:18:15.132Z,18.63
2022-12-19T03:20:53.166Z,19.63
2022-12-19T03:23:21.455Z,19.30
2022-12-19T03:25:54.154Z,18.90
2022-12-19T03:28:36.499Z,18.75
2022-12-19T03:31:05.776Z,19.58
2022-12-19T03:33:35.531Z,19.38
2022-12-19T03:36:09.855Z,19.20
2022-12-19T03:38:40.621Z,18.48
2022-12-19T03:41:13.114Z,18.60
2022-12-19T03:43:45.367Z,17.98
2022-12-19T03:46:26.078Z,18.42
2022-12-19T03:48:55.439Z,17.88
2022-12-19T03:51:45.280Z,18.52
2022-12-19T03:54:30.994Z,18.45
2022-12-19T03:57:08.459Z,18.70
2022-12-19T04:00:08.858Z,18.65
2022-12-19T04:02:48.871Z,18.90
2022-12-19T04:05:24.372Z,18.17
2022-12-19T04:07:56.686Z,19.30
2022-12-19T04:10:28.318Z,20.10
2022-12-19T04:16:10.983Z,16.55
2022-12-19T04:18:43.582Z,17.13
2022-12-19T04:21:25.900Z,18.90
2022-12-19T04:24:00.660Z,18.10
2022-12-19T04:26:30.453Z,18.35
2022-12-19T04:29:02.487Z,19.45
2022-12-19T04:31:31.383Z,18.05
2022-12-19T04:33:59.353Z,19.02
2022-12-19T04:36:27.401Z,18.52
2022-12-19T04:38:55.136Z,19.45
2022-12-19T04:41:42.747Z,18.38
2022-12-19T04:44:10.555Z,19.35
2022-12-19T04:46:44.025Z,19.33
2022-12-19T04:49:31.748Z,20.35
2022-12-19T04:51:59.403Z,19.13
2022-12-19T04:54:27.670Z,19.27
2022-12-19T04:56:55.773Z,20.08
2022-12-19T04:59:23.714Z,19.73
2022-12-19T05:01:51.532Z,19.60
2022-12-19T05:04:19.459Z,20.02
2022-12-19T05:06:47.127Z,19.33
2022-12-19T05:09:14.924Z,20.08
2022-12-19T05:11:42.799Z,20.08
2022-12-19T05:14:10.942Z,19.50
2022-12-19T05:16:38.777Z,19.02
2022-12-19T05:19:06.534Z,19.65
2022-12-19T05:21:34.260Z,19.42
2022-12-19T05:24:01.888Z,19.27
2022-12-19T05:26:29.597Z,19.58
2022-12-19T05:28:57.314Z,19.00
2022-12-19T05:31:25.132Z,19.15
2022-12-19T05:33:52.790Z,19.35
2022-12-19T05:36:20.549Z,19.42
2022-12-19T05:38:48.400Z,19.58
2022-12-19T05:41:19.599Z,19.30
2022-12-19T05:43:55.389Z,19.42
2022-12-19T05:46:24.838Z,19.52
2022-12-19T05:48:53.713Z,18.98
2022-12-19T05:51:22.217Z,19.45
2022-12-19T05:53:50.037Z,19.33
2022-12-19T05:56:21.383Z,20.55
2022-12-19T05:58:50.101Z,21.88
2022-12-19T06:01:26.397Z,21.52
2022-12-19T06:03:55.350Z,21.50
2022-12-19T06:06:26.121Z,19.85
2022-12-19T06:08:56.058Z,21.80
2022-12-19T06:11:24.492Z,19.88
2022-12-19T06:13:52.572Z,20.27
2022-12-19T06:16:22.402Z,20.75
2022-12-19T06:18:50.695Z,20.27
2022-12-19T06:21:21.839Z,20.35
2022-12-19T06:23:50.728Z,21.05
2022-12-19T06:26:20.668Z,21.75
2022-12-19T06:28:50.252Z,22.38
2022-12-19T06:31:20.497Z,23.10
2022-12-19T06:33:48.687Z,23.05
2022-12-19T06:36:30.385Z,21.25
2022-12-19T06:41:45.518Z,19.25
2022-12-19T06:44:16.410Z,19.38
2022-12-19T06:46:44.803Z,19.90
2022-12-19T06:49:12.920Z,21.00
2022-12-19T06:51:41.773Z,20.63
2022-12-19T06:54:14.392Z,19.83
2022-12-19T06:56:44.228Z,19.83
2022-12-19T06:59:15.750Z,19.88
2022-12-19T07:01:59.463Z,20.02
2022-12-19T07:04:34.071Z,24.30
2022-12-19T07:07:01.860Z,23.40
2022-12-19T07:09:30.458Z,23.65
2022-12-19T07:11:58.210Z,21.83
2022-12-19T07:14:25.979Z,20.75
2022-12-19T07:16:54.811Z,21.23
2022-12-19T07:19:23.162Z,21.58
2022-12-19T07:21:51.095Z,20.58
2022-12-19T07:24:18.978Z,20.13
2022-12-19T07:26:46.865Z,20.50
2022-12-19T07:29:14.734Z,20.05
2022-12-19T07:31:42.597Z,20.63
2022-12-19T07:34:10.336Z,19.92
2022-12-19T07:36:38.041Z,19.33
2022-12-19T07:39:06.309Z,19.35
2022-12-19T07:41:37.447Z,20.95
2022-12-19T07:44:07.065Z,21.48
2022-12-19T07:46:35.228Z,19.77
2022-12-19T07:49:02.959Z,19.88
2022-12-19T07:51:30.765Z,19.30
2022-12-19T07:53:58.826Z,19.85
2022-12-19T07:56:27.963Z,18.25
2022-12-19T07:58:55.998Z,19.33
2022-12-19T08:01:24.040Z,19.40
2022-12-19T08:03:57.195Z,19.13
2022-12-19T08:06:26.039Z,18.77
2022-12-19T08:08:54.321Z,19.60
2022-12-19T08:11:27.171Z,19.70
2022-12-19T08:13:55.533Z,20.15
2022-12-19T08:16:27.213Z,20.75
2022-12-19T08:18:58.558Z,21.00
2022-12-19T08:21:26.533Z,19.55
2022-12-19T08:23:54.608Z,20.30
2022-12-19T08:26:26.089Z,20.40
2022-12-19T08:28:57.227Z,20.80
2022-12-19T08:31:28.209Z,19.17
2022-12-19T08:33:58.097Z,14.40
2022-12-19T08:36:26.625Z,19.10
2022-12-19T08:38:54.866Z,18.73
2022-12-19T08:41:23.358Z,19.98
2022-12-19T08:43:53.555Z,20.00
2022-12-19T08:46:21.798Z,20.85
2022-12-19T08:48:50.273Z,22.05
2022-12-19T08:51:19.453Z,20.20
2022-12-19T08:53:48.167Z,19.80
2022-12-19T08:56:20.556Z,19.27
2022-12-19T08:58:50.608Z,20.70
2022-12-19T09:01:21.128Z,20.70
2022-12-19T09:04:16.849Z,20.58
2022-12-19T09:06:38.702Z,24.05
2022-12-19T09:09:07.525Z,24.60
2022-12-19T09:11:37.596Z,24.90
2022-12-19T09:14:20.481Z,24.95
2022-12-19T09:16:49.583Z,24.15
2022-12-19T09:19:18.301Z,24.08
2022-12-19T09:21:46.472Z,21.45
2022-12-19T09:24:15.648Z,22.67
2022-12-19T09:26:44.980Z,20.77
2022-12-19T09:29:20.423Z,20.98
2022-12-19T09:31:51.801Z,19.70
2022-12-19T09:34:37.792Z,18.83
2022-12-19T09:37:16.677Z,19.08
2022-12-19T09:39:47.591Z,19.60
2022-12-19T09:43:02.369Z,19.65
2022-12-19T09:46:22.880Z,18.75
2022-12-19T09:48:56.377Z,19.73
2022-12-19T09:51:34.526Z,19.13
2022-12-19T09:54:29.149Z,20.25
2022-12-19T09:57:05.204Z,19.30
2022-12-19T09:59:49.619Z,18.73
2022-12-19T10:02:48.521Z,19.35
2022-12-19T10:06:25.886Z,19.33
2022-12-19T10:08:42.638Z,20.00
2022-12-19T10:12:46.144Z,19.17
2022-12-19T10:15:15.589Z,18.98
2022-12-19T10:18:17.847Z,18.10
2022-12-19T10:21:14.240Z,19.25
2022-12-19T10:23:57.379Z,19.73
2022-12-19T10:26:53.895Z,19.27
2022-12-19T10:30:09.944Z,20.08
2022-12-19T10:33:02.429Z,19.38
2022-12-19T10:35:44.803Z,21.17
2022-12-19T10:38:27.491Z,22.63
2022-12-19T10:41:30.421Z,21.58
2022-12-19T10:44:10.264Z,20.10
2022-12-19T10:46:46.338Z,21.00
2022-12-19T10:49:22.623Z,22.65
2022-12-19T10:51:56.213Z,21.95
2022-12-19T10:54:33.365Z,21.45
2022-12-19T10:57:29.396Z,21.00
2022-12-19T11:00:20.200Z,19.58
2022-12-19T11:02:52.206Z,19.38
2022-12-19T11:05:47.525Z,19.23
2022-12-19T11:08:34.308Z,20.27
2022-12-19T11:12:37.929Z,19.20
2022-12-19T11:18:30.281Z,19.73
2022-12-19T11:23:21.207Z,19.02
2022-12-19T11:29:30.477Z,19.48
2022-12-19T11:30:38.373Z,20.67
2022-12-19T11:30:41.736Z,22.35
2022-12-19T11:32:33.991Z,19.15
2022-12-19T11:34:24.617Z,20.65
2022-12-19T11:37:21.420Z,21.05
2022-12-19T11:40:21.346Z,19.67
2022-12-19T11:43:41.881Z,18.77
2022-12-19T11:46:21.729Z,21.80
2022-12-19T11:49:02.471Z,20.23
2022-12-19T11:52:29.801Z,23.15
2022-12-19T11:55:19.453Z,21.30
2022-12-19T11:57:48.478Z,20.75
2022-12-19T12:00:21.059Z,20.45
2022-12-19T12:03:13.632Z,22.65
2022-12-19T12:05:47.431Z,22.63
2022-12-19T12:11:34.920Z,20.88
2022-12-19T12:21:40.419Z,20.88
2022-12-19T12:25:37.144Z,21.83
2022-12-19T12:29:54.647Z,20.38
2022-12-19T12:31:27.090Z,20.52
2022-12-19T12:31:44.956Z,22.27
2022-12-19T12:31:46.195Z,16.00
2022-12-19T12:32:02.757Z,23.45
2022-12-19T12:35:56.311Z,20.35
2022-12-19T12:38:10.984Z,21.33
2022-12-19T12:40:11.532Z,20.48
2022-12-19T12:43:09.105Z,19.88
2022-12-19T12:45:47.457Z,19.55
2022-12-19T12:48:40.976Z,20.02
2022-12-19T12:51:10.970Z,20.35
2022-12-19T12:53:44.216Z,20.38
2022-12-19T12:56:16.439Z,20.50
2022-12-19T12:58:46.838Z,21.08
2022-12-19T13:01:29.636Z,21.05
2022-12-19T13:04:19.064Z,20.02
2022-12-19T13:06:50.069Z,19.55
2022-12-19T13:09:17.991Z,20.08
2022-12-19T13:12:46.547Z,21.52
2022-12-19T13:15:32.608Z,21.80
2022-12-19T13:18:14.661Z,21.10
2022-12-19T13:20:48.523Z,20.00
2022-12-19T13:23:38.215Z,20.88
2022-12-19T13:26:41.338Z,21.33
2022-12-19T13:29:51.858Z,19.15
2022-12-19T13:32:22.580Z,20.85
2022-12-19T13:35:23.631Z,14.98
2022-12-19T13:39:54.016Z,22.63
2022-12-19T13:41:33.775Z,23.80
2022-12-19T13:46:45.921Z,26.75
2022-12-19T13:49:34.242Z,26.60
2022-12-19T13:52:05.340Z,28.10
2022-12-19T13:54:52.076Z,28.67
2022-12-19T13:57:30.464Z,30.45
2022-12-19T14:00:08.152Z,31.17
2022-12-19T14:02:50.965Z,31.38
2022-12-19T14:06:16.328Z,29.90
2022-12-19T14:08:28.406Z,28.52
2022-12-19T14:11:29.519Z,31.50
2022-12-19T14:14:27.847Z,29.80
2022-12-19T14:17:12.562Z,27.27
2022-12-19T14:19:45.610Z,26.83
2022-12-19T14:22:26.918Z,25.45
2022-12-19T14:26:48.064Z,25.88
2022-12-19T14:28:18.954Z,24.38
2022-12-19T14:31:05.784Z,28.80
2022-12-19T14:33:54.194Z,29.90
2022-12-19T14:36:31.465Z,31.05
2022-12-19T14:39:23.670Z,28.63
2022-12-19T14:42:11.394Z,28.75
2022-12-19T14:51:42.990Z,28.00
2022-12-19T14:54:11.821Z,27.25
2022-12-19T14:54:13.638Z,26.38
2022-12-19T14:54:48.411Z,26.98
2022-12-19T14:56:52.096Z,25.63
2022-12-19T14:59:36.371Z,25.35
2022-12-19T15:02:07.522Z,25.70
2022-12-19T15:05:00.512Z,24.73
2022-12-19T15:07:32.289Z,27.48
2022-12-19T15:11:05.088Z,30.77
2022-12-19T15:14:57.778Z,29.58
2022-12-19T15:16:34.981Z,25.52
2022-12-19T15:19:05.685Z,25.48
2022-12-19T15:21:33.546Z,26.48
2022-12-19T15:24:01.578Z,26.90
2022-12-19T15:26:34.576Z,28.30
2022-12-19T15:29:09.891Z,28.10
2022-12-19T15:31:41.049Z,27.67
2022-12-19T15:34:37.214Z,29.17
2022-12-19T15:37:13.943Z,28.13
2022-12-19T15:39:43.092Z,29.60
2022-12-19T15:42:23.528Z,31.77
2022-12-19T15:44:53.508Z,30.08
2022-12-19T15:47:32.991Z,30.38
2022-12-19T15:50:14.165Z,29.33
2022-12-19T15:52:41.991Z,30.45
2022-12-19T15:55:15.609Z,30.33
2022-12-19T15:57:55.873Z,31.42
2022-12-19T16:00:28.848Z,32.42
2022-12-19T16:03:23.195Z,30.63
2022-12-19T16:05:45.872Z,29.15
2022-12-19T16:08:26.099Z,29.50
2022-12-19T16:11:01.411Z,29.52
2022-12-19T16:13:36.692Z,28.15
2022-12-19T16:16:11.006Z,26.85
2022-12-19T16:18:47.279Z,23.58
2022-12-19T16:21:31.472Z,20.88
2022-12-19T16:24:02.904Z,20.10
2022-12-19T16:26:36.897Z,19.48
2022-12-19T16:29:06.499Z,19.65
2022-12-19T16:31:34.526Z,20.92
2022-12-19T16:34:03.773Z,21.30
2022-12-19T16:36:31.699Z,19.85
2022-12-19T16:38:59.408Z,20.65
2022-12-19T16:41:28.414Z,20.88
2022-12-19T16:43:56.283Z,20.50
2022-12-19T16:46:30.589Z,19.95
2022-12-19T16:48:58.827Z,20.48
2022-12-19T16:51:28.621Z,20.65
2022-12-19T16:54:00.933Z,20.17
2022-12-19T16:56:47.973Z,20.33
2022-12-19T16:59:34.102Z,20.50
2022-12-19T17:02:15.002Z,20.13
2022-12-19T17:04:42.913Z,20.05
2022-12-19T17:07:11.957Z,20.15
2022-12-19T17:09:39.941Z,20.40
2022-12-19T17:12:18.504Z,21.33
2022-12-19T17:14:47.367Z,20.92
2022-12-19T17:17:16.245Z,20.52
2022-12-19T17:19:45.885Z,21.20
2022-12-19T17:22:19.246Z,27.55
2022-12-19T17:24:49.287Z,35.78
2022-12-19T17:27:19.178Z,43.08
2022-12-19T17:29:47.195Z,44.22
2022-12-19T17:32:23.584Z,42.90
2022-12-19T17:34:52.929Z,43.88
2022-12-19T17:37:21.127Z,39.30
2022-12-19T17:39:49.092Z,35.40
2022-12-19T17:42:23.197Z,34.53
2022-12-19T17:44:51.992Z,30.83
2022-12-19T17:47:21.065Z,28.67
2022-12-19T17:49:49.668Z,28.00
2022-12-19T17:52:21.714Z,26.73
2022-12-19T17:54:49.504Z,28.40
2022-12-19T17:57:18.335Z,30.58
2022-12-19T17:59:46.695Z,27.20
2022-12-19T18:02:22.793Z,28.17
2022-12-19T18:04:52.235Z,27.27
2022-12-19T18:07:20.560Z,28.10
2022-12-19T18:09:48.474Z,28.13
2022-12-19T18:12:16.656Z,26.75
2022-12-19T18:14:44.552Z,28.60
2022-12-19T18:17:19.423Z,28.20
2022-12-19T18:19:47.445Z,28.52
2022-12-19T18:22:15.586Z,27.73
2022-12-19T18:24:44.028Z,27.70
2022-12-19T18:27:12.801Z,28.35
2022-12-19T18:29:41.255Z,29.55
2022-12-19T18:32:19.223Z,30.48
2022-12-19T18:34:47.172Z,28.63
2022-12-19T18:37:16.805Z,32.85
2022-12-19T18:39:45.046Z,31.38
2022-12-19T18:42:21.182Z,29.65
2022-12-19T18:44:50.866Z,33.90
2022-12-19T18:47:23.132Z,34.05
2022-12-19T18:49:52.138Z,33.03
2022-12-19T18:52:20.603Z,35.60
2022-12-19T18:54:48.366Z,34.72
2022-12-19T18:57:16.628Z,33.67
2022-12-19T18:59:44.879Z,34.42
2022-12-19T19:02:26.760Z,33.40
2022-12-19T19:04:55.833Z,35.55
2022-12-19T19:07:24.305Z,33.67
2022-12-19T19:09:52.242Z,32.92
2022-12-19T19:12:48.664Z,33.17
2022-12-19T19:15:22.230Z,32.95
2022-12-19T19:17:56.565Z,34.15
2022-12-19T19:20:27.428Z,31.13
2022-12-19T19:22:57.313Z,24.02
2022-12-19T19:25:25.908Z,32.90
2022-12-19T19:27:56.316Z,33.50
2022-12-19T19:30:43.238Z,33.70
2022-12-19T19:33:22.397Z,33.03
2022-12-19T19:36:11.276Z,34.72
2022-12-19T19:38:47.596Z,35.13
2022-12-19T19:41:20.290Z,35.65
2022-12-19T19:43:49.200Z,38.85
2022-12-19T19:46:18.060Z,35.80
2022-12-19T19:48:46.841Z,34.50
2022-12-19T19:51:19.126Z,39.08
2022-12-19T19:53:48.655Z,38.10
2022-12-19T19:56:18.098Z,36.80
2022-12-19T19:58:58.606Z,35.13
2022-12-19T20:01:28.180Z,34.03
2022-12-19T20:03:56.990Z,31.20
2022-12-19T20:06:25.673Z,29.45
2022-12-19T20:08:53.970Z,27.48
2022-12-19T20:11:25.401Z,29.00
2022-12-19T20:16:23.336Z,27.08
2022-12-19T20:18:53.572Z,38.97
2022-12-19T20:21:24.999Z,34.50
2022-12-19T20:26:22.675Z,34.10
2022-12-19T20:28:52.115Z,34.92
2022-12-19T20:31:24.070Z,35.45
2022-12-19T20:33:55.852Z,36.13
2022-12-19T20:36:27.143Z,37.58
2022-12-19T20:38:55.432Z,37.00
2022-12-19T20:41:24.083Z,36.30
2022-12-19T20:43:53.298Z,36.63
2022-12-19T20:46:24.362Z,34.78
2022-12-19T20:48:54.083Z,33.13
2022-12-19T20:51:23.551Z,30.92
2022-12-19T20:53:55.154Z,30.42
2022-12-19T20:58:52.355Z,28.08
2022-12-19T21:01:23.705Z,29.55
2022-12-19T21:03:52.640Z,30.27
2022-12-19T21:06:25.289Z,31.77
2022-12-19T21:08:57.946Z,31.02
2022-12-19T21:11:26.840Z,30.30
2022-12-19T21:13:55.428Z,31.70
2022-12-19T21:16:24.770Z,31.13
2022-12-19T21:18:53.107Z,31.98
2022-12-19T21:21:26.533Z,31.27
2022-12-19T21:23:55.814Z,30.38
2022-12-19T21:26:26.162Z,29.80
2022-12-19T21:28:58.018Z,29.83
2022-12-19T21:31:30.025Z,27.73
2022-12-19T21:34:00.761Z,28.45
2022-12-19T21:36:30.567Z,29.17
2022-12-19T21:39:02.107Z,29.20
2022-12-19T21:41:31.729Z,28.60
2022-12-19T21:44:00.705Z,28.60
2022-12-19T21:46:33.262Z,29.33
2022-12-19T21:49:03.315Z,28.85
2022-12-19T21:51:32.658Z,27.38
2022-12-19T21:54:04.626Z,28.00
2022-12-19T21:56:39.174Z,28.20
2022-12-19T21:59:13.226Z,28.90
2022-12-19T22:01:43.118Z,28.77
2022-12-19T22:04:23.831Z,28.70
2022-12-19T22:06:52.241Z,20.70
2022-12-19T22:09:23.040Z,27.45
2022-12-19T22:11:51.747Z,20.70
2022-12-19T22:14:19.940Z,24.65
2022-12-19T22:16:48.096Z,23.63
2022-12-19T22:19:19.022Z,22.70
2022-12-19T22:21:48.254Z,15.82
2022-12-19T22:24:17.435Z,23.45
2022-12-19T22:26:45.601Z,25.40
2022-12-19T22:29:17.449Z,23.17
2022-12-19T22:31:46.762Z,24.98
2022-12-19T22:34:18.676Z,23.90
2022-12-19T22:36:48.167Z,24.58
2022-12-19T22:39:20.800Z,25.00
2022-12-19T22:41:49.444Z,24.45
2022-12-19T22:44:24.784Z,25.17
2022-12-19T22:46:53.079Z,23.45
2022-12-19T22:49:21.171Z,22.23
2022-12-19T22:51:49.361Z,21.17
2022-12-19T22:54:17.469Z,21.30
2022-12-19T22:56:51.407Z,21.92
2022-12-19T22:59:19.779Z,21.92
2022-12-19T23:01:48.081Z,21.42
2022-12-19T23:04:17.463Z,22.15
2022-12-19T23:06:45.967Z,24.73
2022-12-19T23:09:17.741Z,22.20
2022-12-19T23:14:18.401Z,19.30
2022-12-19T23:16:47.026Z,19.05
2022-12-19T23:19:16.158Z,19.60
2022-12-19T23:21:44.304Z,18.77
2022-12-19T23:24:13.126Z,17.73
2022-12-19T23:26:41.951Z,18.23
2022-12-19T23:29:13.870Z,17.45
2022-12-19T23:31:46.392Z,20.25
2022-12-19T23:34:15.863Z,20.10
2022-12-19T23:39:32.084Z,19.60
2022-12-19T23:41:59.991Z,19.13
2022-12-19T23:44:28.038Z,19.10
2022-12-19T23:47:02.636Z,19.83
2022-12-19T23:49:33.344Z,19.27
2022-12-19T23:52:01.106Z,20.67
2022-12-19T23:54:29.053Z,20.70
2022-12-19T23:56:56.874Z,20.73
2022-12-19T23:59:24.615Z,21.55
